createdAt,value
2018-07-31T00:00:03.140Z,0.00
2018-07-31T00:01:03.138Z,0.00
2018-07-31T00:02:03.133Z,0.00
2018-07-31T00:03:03.133Z,0.00
2018-07-31T00:04:03.122Z,0.00
2018-07-31T00:05:03.135Z,0.00
2018-07-31T00:06:03.120Z,0.00
2018-07-31T00:07:03.118Z,0.00
2018-07-31T00:08:03.143Z,0.00
2018-07-31T00:09:03.108Z,0.00
2018-07-31T00:10:03.109Z,0.00
2018-07-31T00:11:03.103Z,0.00
2018-07-31T00:12:03.106Z,0.00
2018-07-31T00:13:03.097Z,0.00
2018-07-31T00:14:03.087Z,0.00
2018-07-31T00:15:03.089Z,0.00
2018-07-31T00:16:03.087Z,0.00
2018-07-31T00:17:03.078Z,0.00
2018-07-31T00:18:03.076Z,0.00
2018-07-31T00:19:03.073Z,0.00
2018-07-31T00:20:03.068Z,0.00
2018-07-31T00:21:03.066Z,0.00
2018-07-31T00:22:03.069Z,0.00
2018-07-31T00:23:03.099Z,0.00
2018-07-31T00:24:03.055Z,0.00
2018-07-31T00:25:03.052Z,0.00
2018-07-31T00:26:03.050Z,0.00
2018-07-31T00:27:03.044Z,0.00
2018-07-31T00:28:03.041Z,0.00
2018-07-31T00:29:03.037Z,0.00
2018-07-31T00:30:03.058Z,0.00
2018-07-31T00:31:03.031Z,0.00
2018-07-31T00:32:03.027Z,0.00
2018-07-31T00:33:03.023Z,0.00
2018-07-31T00:34:03.020Z,0.00
2018-07-31T00:35:03.017Z,0.00
2018-07-31T00:36:03.012Z,0.00
2018-07-31T00:37:03.010Z,0.00
2018-07-31T00:38:03.012Z,0.00
2018-07-31T00:39:03.003Z,0.00
2018-07-31T00:40:03.000Z,0.00
2018-07-31T00:41:02.996Z,0.00
2018-07-31T00:42:02.994Z,0.00
2018-07-31T00:43:02.984Z,0.00
2018-07-31T00:44:02.981Z,0.00
2018-07-31T00:45:02.978Z,0.00
2018-07-31T00:46:02.982Z,0.00
2018-07-31T00:47:02.976Z,0.00
2018-07-31T00:48:02.977Z,0.00
2018-07-31T00:49:02.976Z,0.00
2018-07-31T00:50:02.962Z,0.00
2018-07-31T00:51:02.959Z,0.00
2018-07-31T00:52:02.952Z,0.00
2018-07-31T00:53:02.950Z,0.00
2018-07-31T00:54:02.948Z,0.00
2018-07-31T00:55:02.944Z,0.00
2018-07-31T00:56:02.939Z,0.00
2018-07-31T00:57:02.937Z,0.00
2018-07-31T00:58:02.934Z,0.00
2018-07-31T00:59:02.930Z,0.00
2018-07-31T01:00:02.924Z,0.00
2018-07-31T01:01:02.925Z,0.00
2018-07-31T01:02:02.916Z,0.00
2018-07-31T01:03:02.920Z,0.00
2018-07-31T01:04:02.908Z,0.00
2018-07-31T01:05:02.908Z,0.00
2018-07-31T01:06:02.906Z,0.00
2018-07-31T01:07:02.897Z,0.00
2018-07-31T01:08:02.897Z,0.00
2018-07-31T01:09:02.897Z,0.00
2018-07-31T01:10:02.883Z,0.00
2018-07-31T01:11:02.946Z,0.00
2018-07-31T01:12:02.880Z,0.00
2018-07-31T01:13:02.888Z,0.00
2018-07-31T01:14:02.882Z,0.00
2018-07-31T01:15:02.871Z,0.00
2018-07-31T01:16:02.869Z,0.00
2018-07-31T01:17:02.864Z,0.00
2018-07-31T01:18:02.862Z,0.00
2018-07-31T01:19:02.860Z,0.00
2018-07-31T01:20:02.853Z,0.00
2018-07-31T01:21:02.850Z,0.00
2018-07-31T01:22:02.843Z,0.00
2018-07-31T01:23:02.847Z,0.00
2018-07-31T01:24:02.836Z,0.00
2018-07-31T01:25:02.836Z,0.00
2018-07-31T01:26:02.834Z,0.00
2018-07-31T01:27:02.837Z,0.00
2018-07-31T01:28:02.828Z,0.00
2018-07-31T01:29:02.824Z,0.00
2018-07-31T01:30:02.821Z,0.00
2018-07-31T01:31:02.816Z,0.00
2018-07-31T01:32:02.807Z,0.00
2018-07-31T01:33:02.807Z,0.00
2018-07-31T01:34:02.800Z,0.00
2018-07-31T01:35:02.799Z,0.00
2018-07-31T01:36:02.794Z,0.00
2018-07-31T01:37:02.791Z,0.00
2018-07-31T01:38:02.788Z,0.00
2018-07-31T01:39:02.790Z,0.00
2018-07-31T01:40:02.781Z,0.00
2018-07-31T01:41:02.778Z,0.00
2018-07-31T01:42:02.774Z,0.00
2018-07-31T01:43:02.774Z,0.00
2018-07-31T01:44:02.764Z,0.00
2018-07-31T01:45:02.768Z,0.00
2018-07-31T01:46:02.847Z,0.00
2018-07-31T01:47:02.756Z,0.00
2018-07-31T01:48:02.755Z,0.00
2018-07-31T01:49:02.749Z,0.00
2018-07-31T01:50:02.749Z,0.00
2018-07-31T01:51:02.745Z,0.00
2018-07-31T01:52:02.738Z,0.00
2018-07-31T01:53:02.731Z,0.00
2018-07-31T01:54:02.731Z,0.00
2018-07-31T01:55:02.732Z,0.00
2018-07-31T01:56:02.725Z,0.00
2018-07-31T01:57:02.722Z,0.00
2018-07-31T01:58:02.725Z,0.00
2018-07-31T01:59:02.732Z,0.00
2018-07-31T02:00:02.707Z,0.00
2018-07-31T02:01:02.704Z,0.00
2018-07-31T02:02:02.701Z,0.00
2018-07-31T02:03:02.697Z,0.00
2018-07-31T02:04:02.696Z,0.00
2018-07-31T02:05:02.690Z,0.00
2018-07-31T02:06:02.687Z,0.00
2018-07-31T02:07:02.686Z,0.00
2018-07-31T02:08:02.681Z,0.00
2018-07-31T02:09:02.676Z,0.00
2018-07-31T02:10:02.674Z,0.00
2018-07-31T02:11:02.676Z,0.00
2018-07-31T02:12:02.663Z,0.00
2018-07-31T02:13:02.663Z,0.00
2018-07-31T02:14:02.658Z,0.00
2018-07-31T02:15:02.656Z,0.00
2018-07-31T02:16:02.651Z,0.00
2018-07-31T02:17:02.642Z,0.00
2018-07-31T02:18:02.650Z,0.00
2018-07-31T02:19:02.640Z,0.00
2018-07-31T02:20:02.634Z,0.00
2018-07-31T02:21:02.634Z,0.00
2018-07-31T02:22:02.633Z,0.00
2018-07-31T02:23:02.641Z,0.00
2018-07-31T02:24:02.620Z,0.00
2018-07-31T02:25:02.619Z,0.00
2018-07-31T02:26:02.613Z,0.00
2018-07-31T02:27:02.609Z,0.00
2018-07-31T02:28:02.673Z,0.00
2018-07-31T02:29:02.606Z,0.00
2018-07-31T02:30:02.636Z,0.00
2018-07-31T02:31:02.596Z,0.00
2018-07-31T02:32:02.591Z,0.00
2018-07-31T02:33:02.587Z,0.00
2018-07-31T02:34:02.584Z,0.00
2018-07-31T02:35:02.580Z,0.00
2018-07-31T02:36:02.577Z,0.00
2018-07-31T02:37:02.573Z,0.00
2018-07-31T02:38:02.573Z,0.00
2018-07-31T02:39:02.568Z,0.00
2018-07-31T02:40:02.559Z,0.00
2018-07-31T02:41:02.560Z,0.00
2018-07-31T02:42:02.551Z,0.00
2018-07-31T02:43:02.550Z,0.00
2018-07-31T02:44:02.542Z,0.00
2018-07-31T02:45:02.542Z,0.00
2018-07-31T02:46:02.543Z,0.00
2018-07-31T02:47:02.602Z,0.00
2018-07-31T02:48:02.531Z,0.00
2018-07-31T02:49:02.522Z,0.00
2018-07-31T02:50:02.523Z,0.00
2018-07-31T02:51:02.520Z,0.00
2018-07-31T02:52:02.517Z,0.00
2018-07-31T02:53:02.519Z,0.00
2018-07-31T02:54:02.509Z,0.00
2018-07-31T02:55:02.505Z,0.00
2018-07-31T02:56:02.501Z,0.00
2018-07-31T02:57:02.500Z,0.00
2018-07-31T02:58:02.546Z,0.00
2018-07-31T02:59:02.494Z,0.00
2018-07-31T03:00:02.487Z,0.00
2018-07-31T03:01:02.483Z,0.00
2018-07-31T03:02:02.479Z,0.00
2018-07-31T03:03:02.476Z,0.00
2018-07-31T03:04:02.471Z,0.00
2018-07-31T03:05:02.474Z,0.00
2018-07-31T03:06:02.469Z,0.00
2018-07-31T03:07:02.462Z,0.00
2018-07-31T03:08:02.479Z,0.00
2018-07-31T03:09:02.481Z,0.00
2018-07-31T03:10:02.456Z,0.00
2018-07-31T03:11:02.446Z,0.00
2018-07-31T03:12:02.433Z,0.00
2018-07-31T03:13:02.439Z,0.00
2018-07-31T03:14:02.432Z,0.00
2018-07-31T03:15:02.431Z,0.00
2018-07-31T03:16:02.428Z,0.00
2018-07-31T03:17:02.430Z,0.00
2018-07-31T03:18:02.416Z,0.00
2018-07-31T03:19:02.430Z,0.00
2018-07-31T03:20:02.411Z,0.00
2018-07-31T03:21:02.406Z,0.00
2018-07-31T03:22:02.404Z,0.00
2018-07-31T03:23:02.407Z,0.00
2018-07-31T03:24:02.395Z,0.00
2018-07-31T03:25:02.392Z,0.00
2018-07-31T03:26:02.389Z,0.00
2018-07-31T03:27:02.384Z,0.00
2018-07-31T03:28:02.386Z,0.00
2018-07-31T03:29:02.389Z,0.00
2018-07-31T03:30:02.372Z,0.00
2018-07-31T03:31:02.370Z,0.00
2018-07-31T03:32:02.369Z,0.00
2018-07-31T03:33:02.360Z,0.00
2018-07-31T03:34:02.357Z,0.00
2018-07-31T03:35:02.353Z,0.00
2018-07-31T03:36:02.349Z,0.00
2018-07-31T03:37:02.345Z,0.00
2018-07-31T03:38:02.341Z,0.00
2018-07-31T03:39:02.336Z,4.00
2018-07-31T03:40:02.335Z,8.00
2018-07-31T03:41:02.333Z,16.00
2018-07-31T03:42:02.329Z,12.00
2018-07-31T03:43:02.318Z,8.00
2018-07-31T03:44:02.316Z,8.00
2018-07-31T03:45:02.311Z,8.00
2018-07-31T03:46:02.305Z,8.00
2018-07-31T03:47:02.302Z,8.00
2018-07-31T03:48:02.297Z,12.00
2018-07-31T03:49:02.289Z,12.00
2018-07-31T03:50:02.294Z,12.00
2018-07-31T03:51:02.281Z,12.00
2018-07-31T03:52:02.283Z,16.00
2018-07-31T03:53:02.272Z,16.00
2018-07-31T03:54:02.277Z,20.00
2018-07-31T03:55:02.263Z,20.00
2018-07-31T03:56:02.263Z,24.00
2018-07-31T03:57:02.261Z,24.00
2018-07-31T03:58:02.252Z,28.00
2018-07-31T03:59:02.244Z,28.00
2018-07-31T04:00:02.243Z,28.00
2018-07-31T04:01:02.236Z,32.00
2018-07-31T04:02:02.229Z,32.00
2018-07-31T04:03:02.225Z,36.00
2018-07-31T04:04:02.231Z,36.00
2018-07-31T04:05:02.227Z,36.00
2018-07-31T04:06:02.215Z,44.00
2018-07-31T04:07:02.208Z,44.00
2018-07-31T04:08:02.197Z,48.00
2018-07-31T04:09:02.196Z,48.00
2018-07-31T04:10:02.195Z,52.00
2018-07-31T04:11:02.185Z,52.00
2018-07-31T04:12:02.180Z,56.00
2018-07-31T04:13:02.178Z,60.00
2018-07-31T04:14:02.177Z,60.00
2018-07-31T04:15:02.165Z,64.00
2018-07-31T04:16:02.161Z,68.00
2018-07-31T04:17:02.198Z,72.00
2018-07-31T04:18:02.151Z,72.00
2018-07-31T04:19:02.146Z,76.00
2018-07-31T04:20:02.141Z,80.00
2018-07-31T04:21:02.135Z,84.00
2018-07-31T04:22:02.130Z,84.00
2018-07-31T04:23:02.130Z,88.00
2018-07-31T04:24:02.121Z,92.00
2018-07-31T04:25:02.114Z,96.00
2018-07-31T04:26:02.115Z,100.00
2018-07-31T04:27:02.108Z,104.00
2018-07-31T04:28:02.099Z,104.00
2018-07-31T04:29:02.093Z,108.00
2018-07-31T04:30:02.113Z,112.00
2018-07-31T04:31:02.084Z,116.00
2018-07-31T04:32:02.082Z,116.00
2018-07-31T04:33:02.083Z,120.00
2018-07-31T04:34:02.067Z,128.00
2018-07-31T04:35:02.065Z,128.00
2018-07-31T04:36:02.061Z,132.00
2018-07-31T04:37:02.056Z,136.00
2018-07-31T04:38:02.049Z,140.00
2018-07-31T04:39:02.045Z,144.00
2018-07-31T04:40:02.041Z,148.00
2018-07-31T04:41:02.032Z,148.00
2018-07-31T04:42:02.030Z,152.00
2018-07-31T04:43:02.023Z,160.00
2018-07-31T04:44:02.018Z,164.00
2018-07-31T04:45:02.019Z,164.00
2018-07-31T04:46:02.005Z,172.00
2018-07-31T04:47:02.005Z,176.00
2018-07-31T04:48:02.002Z,180.00
2018-07-31T04:49:01.993Z,184.00
2018-07-31T04:50:01.989Z,188.00
2018-07-31T04:51:01.987Z,192.00
2018-07-31T04:52:01.979Z,196.00
2018-07-31T04:53:01.973Z,200.00
2018-07-31T04:54:01.971Z,204.00
2018-07-31T04:55:01.962Z,204.00
2018-07-31T04:56:01.958Z,208.00
2018-07-31T04:57:01.952Z,212.00
2018-07-31T04:58:01.948Z,216.00
2018-07-31T04:59:01.943Z,220.00
2018-07-31T05:00:01.938Z,224.00
2018-07-31T05:01:01.933Z,224.00
2018-07-31T05:02:01.928Z,224.00
2018-07-31T05:03:01.921Z,228.00
2018-07-31T05:04:01.916Z,232.00
2018-07-31T05:05:01.907Z,232.00
2018-07-31T05:06:01.909Z,240.00
2018-07-31T05:07:01.900Z,240.00
2018-07-31T05:08:01.923Z,248.00
2018-07-31T05:09:01.901Z,260.00
2018-07-31T05:10:01.891Z,264.00
2018-07-31T05:11:01.923Z,272.00
2018-07-31T05:12:01.875Z,284.00
2018-07-31T05:13:01.869Z,292.00
2018-07-31T05:14:01.865Z,300.00
2018-07-31T05:15:01.860Z,308.00
2018-07-31T05:16:01.854Z,316.00
2018-07-31T05:17:01.868Z,328.00
2018-07-31T05:18:01.851Z,336.00
2018-07-31T05:19:01.844Z,344.00
2018-07-31T05:20:01.836Z,348.00
2018-07-31T05:21:01.832Z,352.00
2018-07-31T05:22:01.829Z,360.00
2018-07-31T05:23:01.823Z,368.00
2018-07-31T05:24:01.814Z,368.00
2018-07-31T05:25:01.808Z,376.00
2018-07-31T05:26:01.840Z,380.00
2018-07-31T05:27:01.797Z,384.00
2018-07-31T05:28:01.798Z,392.00
2018-07-31T05:29:01.790Z,400.00
2018-07-31T05:30:01.816Z,404.00
2018-07-31T05:31:01.780Z,412.00
2018-07-31T05:32:01.774Z,416.00
2018-07-31T05:33:01.772Z,420.00
2018-07-31T05:34:01.767Z,428.00
2018-07-31T05:35:01.760Z,436.00
2018-07-31T05:36:01.753Z,444.00
2018-07-31T05:37:01.750Z,452.00
2018-07-31T05:38:01.743Z,460.00
2018-07-31T05:39:01.744Z,472.00
2018-07-31T05:40:01.734Z,480.00
2018-07-31T05:41:01.728Z,488.00
2018-07-31T05:42:01.727Z,500.00
2018-07-31T05:43:01.729Z,504.00
2018-07-31T05:44:01.713Z,512.00
2018-07-31T05:45:01.709Z,520.00
2018-07-31T05:46:01.709Z,524.00
2018-07-31T05:47:01.710Z,532.00
2018-07-31T05:48:01.696Z,540.00
2018-07-31T05:49:01.689Z,548.00
2018-07-31T05:50:01.685Z,552.00
2018-07-31T05:51:01.685Z,560.00
2018-07-31T05:52:01.673Z,564.00
2018-07-31T05:53:01.668Z,572.00
2018-07-31T05:54:01.665Z,576.00
2018-07-31T05:55:01.658Z,584.00
2018-07-31T05:56:01.656Z,588.00
2018-07-31T05:57:01.695Z,596.00
2018-07-31T05:58:01.650Z,600.00
2018-07-31T05:59:01.643Z,608.00
2018-07-31T06:00:01.646Z,612.00
2018-07-31T06:01:01.630Z,620.00
2018-07-31T06:02:01.620Z,624.00
2018-07-31T06:03:01.616Z,632.00
2018-07-31T06:04:01.621Z,636.00
2018-07-31T06:05:01.609Z,644.00
2018-07-31T06:06:01.607Z,648.00
2018-07-31T06:07:01.600Z,660.00
2018-07-31T06:08:01.596Z,664.00
2018-07-31T06:09:01.589Z,668.00
2018-07-31T06:10:01.587Z,672.00
2018-07-31T06:11:01.580Z,676.00
2018-07-31T06:12:01.575Z,684.00
2018-07-31T06:13:01.569Z,688.00
2018-07-31T06:14:01.567Z,696.00
2018-07-31T06:15:01.566Z,704.00
2018-07-31T06:16:01.557Z,708.00
2018-07-31T06:17:01.551Z,712.00
2018-07-31T06:18:01.545Z,716.00
2018-07-31T06:19:01.546Z,724.00
2018-07-31T06:20:01.537Z,728.00
2018-07-31T06:21:01.530Z,732.00
2018-07-31T06:22:01.527Z,736.00
2018-07-31T06:23:01.523Z,740.00
2018-07-31T06:24:01.514Z,748.00
2018-07-31T06:25:01.516Z,752.00
2018-07-31T06:26:01.536Z,756.00
2018-07-31T06:27:01.547Z,764.00
2018-07-31T06:28:01.518Z,768.00
2018-07-31T06:29:01.491Z,772.00
2018-07-31T06:30:01.485Z,772.00
2018-07-31T06:31:01.486Z,776.00
2018-07-31T06:32:01.480Z,784.00
2018-07-31T06:33:01.496Z,784.00
2018-07-31T06:34:01.469Z,792.00
2018-07-31T06:35:01.467Z,796.00
2018-07-31T06:36:01.467Z,800.00
2018-07-31T06:37:01.454Z,804.00
2018-07-31T06:38:01.448Z,808.00
2018-07-31T06:39:01.446Z,812.00
2018-07-31T06:40:01.437Z,816.00
2018-07-31T06:41:01.432Z,824.00
2018-07-31T06:42:01.429Z,828.00
2018-07-31T06:43:01.426Z,832.00
2018-07-31T06:44:01.420Z,840.00
2018-07-31T06:45:01.422Z,844.00
2018-07-31T06:46:01.410Z,852.00
2018-07-31T06:47:01.406Z,860.00
2018-07-31T06:48:01.407Z,864.00
2018-07-31T06:49:01.390Z,876.00
2018-07-31T06:50:01.393Z,884.00
2018-07-31T06:51:01.386Z,892.00
2018-07-31T06:52:01.383Z,896.00
2018-07-31T06:53:01.385Z,908.00
2018-07-31T06:54:01.374Z,908.00
2018-07-31T06:55:01.382Z,916.00
2018-07-31T06:56:01.367Z,924.00
2018-07-31T06:57:01.363Z,928.00
2018-07-31T06:58:01.355Z,936.00
2018-07-31T06:59:01.350Z,944.00
2018-07-31T07:00:01.348Z,948.00
2018-07-31T07:01:01.338Z,960.00
2018-07-31T07:02:01.387Z,968.00
2018-07-31T07:03:01.337Z,980.00
2018-07-31T07:04:01.331Z,992.00
2018-07-31T07:05:01.327Z,1004.00
2018-07-31T07:06:01.318Z,1012.00
2018-07-31T07:07:01.314Z,1028.00
2018-07-31T07:08:01.306Z,1040.00
2018-07-31T07:09:01.303Z,1052.00
2018-07-31T07:10:01.299Z,1068.00
2018-07-31T07:11:01.294Z,1080.00
2018-07-31T07:12:01.288Z,1096.00
2018-07-31T07:13:01.287Z,1108.00
2018-07-31T07:14:01.280Z,1120.00
2018-07-31T07:15:01.282Z,1136.00
2018-07-31T07:16:01.270Z,1152.00
2018-07-31T07:17:01.270Z,1164.00
2018-07-31T07:18:01.264Z,1176.00
2018-07-31T07:19:01.260Z,1188.00
2018-07-31T07:20:01.258Z,1204.00
2018-07-31T07:21:01.247Z,1216.00
2018-07-31T07:22:01.246Z,1232.00
2018-07-31T07:23:01.246Z,1244.00
2018-07-31T07:24:01.234Z,1260.00
2018-07-31T07:25:01.235Z,1276.00
2018-07-31T07:26:01.226Z,1288.00
2018-07-31T07:27:01.221Z,1304.00
2018-07-31T07:28:01.274Z,1312.00
2018-07-31T07:29:01.212Z,1328.00
2018-07-31T07:30:01.208Z,1344.00
2018-07-31T07:31:01.204Z,1360.00
2018-07-31T07:32:01.199Z,1372.00
2018-07-31T07:33:01.194Z,1388.00
2018-07-31T07:34:01.282Z,1400.00
2018-07-31T07:35:01.186Z,1416.00
2018-07-31T07:36:01.195Z,1424.00
2018-07-31T07:37:01.177Z,1440.00
2018-07-31T07:38:01.177Z,1456.00
2018-07-31T07:39:01.168Z,1468.00
2018-07-31T07:40:01.166Z,1480.00
2018-07-31T07:41:01.161Z,1492.00
2018-07-31T07:42:01.150Z,1508.00
2018-07-31T07:43:01.149Z,1524.00
2018-07-31T07:44:01.142Z,1536.00
2018-07-31T07:45:01.142Z,1552.00
2018-07-31T07:46:01.140Z,1560.00
2018-07-31T07:47:01.132Z,1576.00
2018-07-31T07:48:01.127Z,1588.00
2018-07-31T07:49:01.124Z,1604.00
2018-07-31T07:50:01.119Z,1616.00
2018-07-31T07:51:01.116Z,1628.00
2018-07-31T07:52:01.113Z,1640.00
2018-07-31T07:53:01.110Z,1648.00
2018-07-31T07:54:01.192Z,1664.00
2018-07-31T07:55:01.103Z,1680.00
2018-07-31T07:56:01.096Z,1692.00
2018-07-31T07:57:01.927Z,1708.00
2018-07-31T07:58:01.086Z,1720.00
2018-07-31T07:59:01.082Z,1732.00
2018-07-31T08:00:01.078Z,1748.00
2018-07-31T08:01:01.073Z,1764.00
2018-07-31T08:02:01.071Z,1780.00
2018-07-31T08:03:01.067Z,1792.00
2018-07-31T08:04:01.105Z,1808.00
2018-07-31T08:05:01.054Z,1816.00
2018-07-31T08:06:01.051Z,1828.00
2018-07-31T08:07:01.050Z,1840.00
2018-07-31T08:08:01.047Z,1856.00
2018-07-31T08:09:01.039Z,1868.00
2018-07-31T08:10:01.036Z,1884.00
2018-07-31T08:11:01.033Z,1896.00
2018-07-31T08:12:01.027Z,1912.00
2018-07-31T08:13:01.024Z,1928.00
2018-07-31T08:14:01.020Z,1936.00
2018-07-31T08:15:01.047Z,1944.00
2018-07-31T08:16:01.012Z,1960.00
2018-07-31T08:17:01.010Z,1968.00
2018-07-31T08:18:01.007Z,1984.00
2018-07-31T08:19:01.001Z,2000.00
2018-07-31T08:20:00.997Z,2012.00
2018-07-31T08:21:00.994Z,2024.00
2018-07-31T08:22:00.992Z,2036.00
2018-07-31T08:23:00.985Z,2052.00
2018-07-31T08:24:00.977Z,2064.00
2018-07-31T08:25:00.975Z,2080.00
2018-07-31T08:26:00.977Z,2092.00
2018-07-31T08:27:00.968Z,2112.00
2018-07-31T08:28:00.963Z,2120.00
2018-07-31T08:29:00.962Z,2128.00
2018-07-31T08:30:00.957Z,2148.00
2018-07-31T08:31:00.954Z,2156.00
2018-07-31T08:32:00.947Z,2172.00
2018-07-31T08:33:00.945Z,2180.00
2018-07-31T08:34:00.940Z,2196.00
2018-07-31T08:35:00.938Z,2204.00
2018-07-31T08:36:00.933Z,2212.00
2018-07-31T08:37:00.926Z,2228.00
2018-07-31T08:38:00.925Z,2236.00
2018-07-31T08:39:00.921Z,2244.00
2018-07-31T08:40:00.917Z,2252.00
2018-07-31T08:41:00.912Z,2268.00
2018-07-31T08:42:00.910Z,2284.00
2018-07-31T08:43:00.907Z,2292.00
2018-07-31T08:44:00.903Z,2304.00
2018-07-31T08:45:00.900Z,2316.00
2018-07-31T08:46:00.894Z,2332.00
2018-07-31T08:47:00.891Z,2340.00
2018-07-31T08:48:00.889Z,2352.00
2018-07-31T08:49:00.881Z,2356.00
2018-07-31T08:50:00.884Z,2368.00
2018-07-31T08:51:00.877Z,2376.00
2018-07-31T08:52:00.872Z,2384.00
2018-07-31T08:53:00.869Z,2392.00
2018-07-31T08:54:00.864Z,2396.00
2018-07-31T08:55:00.862Z,2416.00
2018-07-31T08:56:00.860Z,2424.00
2018-07-31T08:57:00.937Z,2440.00
2018-07-31T08:58:00.850Z,2452.00
2018-07-31T08:59:00.847Z,2460.00
2018-07-31T09:00:00.848Z,2476.00
2018-07-31T09:01:00.841Z,2492.00
2018-07-31T09:02:00.836Z,2496.00
2018-07-31T09:03:00.832Z,2504.00
2018-07-31T09:04:00.828Z,2524.00
2018-07-31T09:05:00.828Z,2524.00
2018-07-31T09:06:00.819Z,2536.00
2018-07-31T09:07:00.819Z,2548.00
2018-07-31T09:08:00.814Z,2556.00
2018-07-31T09:09:00.899Z,2568.00
2018-07-31T09:10:00.809Z,2580.00
2018-07-31T09:11:00.804Z,2592.00
2018-07-31T09:12:00.822Z,2604.00
2018-07-31T09:13:00.796Z,2616.00
2018-07-31T09:14:00.795Z,2628.00
2018-07-31T09:15:00.795Z,2640.00
2018-07-31T09:16:00.788Z,2656.00
2018-07-31T09:17:00.785Z,2672.00
2018-07-31T09:18:00.782Z,2692.00
2018-07-31T09:19:00.781Z,2708.00
2018-07-31T09:20:00.775Z,2712.00
2018-07-31T09:21:00.771Z,2720.00
2018-07-31T09:22:00.768Z,2720.00
2018-07-31T09:23:00.766Z,2716.00
2018-07-31T09:24:00.762Z,2716.00
2018-07-31T09:25:00.759Z,2720.00
2018-07-31T09:26:00.757Z,2716.00
2018-07-31T09:27:00.751Z,2720.00
2018-07-31T09:28:00.746Z,2724.00
2018-07-31T09:29:00.744Z,2724.00
2018-07-31T09:30:00.742Z,2732.00
2018-07-31T09:31:00.934Z,2740.00
2018-07-31T09:32:00.734Z,2748.00
2018-07-31T09:33:00.731Z,2764.00
2018-07-31T09:34:00.733Z,2776.00
2018-07-31T09:35:00.732Z,2784.00
2018-07-31T09:36:00.720Z,2808.00
2018-07-31T09:37:00.720Z,2840.00
2018-07-31T09:38:00.771Z,2872.00
2018-07-31T09:39:00.712Z,2900.00
2018-07-31T09:40:00.708Z,2932.00
2018-07-31T09:41:00.705Z,2956.00
2018-07-31T09:42:00.710Z,2976.00
2018-07-31T09:43:00.700Z,2984.00
2018-07-31T09:44:00.693Z,2984.00
2018-07-31T09:45:00.695Z,2968.00
2018-07-31T09:46:00.690Z,2940.00
2018-07-31T09:47:00.687Z,2916.00
2018-07-31T09:48:00.685Z,2896.00
2018-07-31T09:49:00.686Z,2876.00
2018-07-31T09:50:00.678Z,2876.00
2018-07-31T09:51:00.675Z,2876.00
2018-07-31T09:52:00.671Z,2868.00
2018-07-31T09:53:00.670Z,2876.00
2018-07-31T09:54:00.683Z,2888.00
2018-07-31T09:55:00.667Z,2908.00
2018-07-31T09:56:00.662Z,2928.00
2018-07-31T09:57:00.659Z,2936.00
2018-07-31T09:58:00.654Z,2932.00
2018-07-31T09:59:00.666Z,2936.00
2018-07-31T10:00:00.649Z,2916.00
2018-07-31T10:01:00.647Z,2912.00
2018-07-31T10:02:00.643Z,2904.00
2018-07-31T10:03:00.642Z,2912.00
2018-07-31T10:04:00.639Z,2900.00
2018-07-31T10:05:00.756Z,2904.00
2018-07-31T10:06:00.632Z,2896.00
2018-07-31T10:07:00.629Z,2900.00
2018-07-31T10:08:00.623Z,2900.00
2018-07-31T10:09:00.621Z,2900.00
2018-07-31T10:10:00.623Z,2896.00
2018-07-31T10:11:00.618Z,2896.00
2018-07-31T10:12:00.630Z,2892.00
2018-07-31T10:13:00.611Z,2876.00
2018-07-31T10:14:00.606Z,2864.00
2018-07-31T10:15:00.602Z,2860.00
2018-07-31T10:16:00.608Z,2860.00
2018-07-31T10:17:00.601Z,2848.00
2018-07-31T10:18:00.698Z,2844.00
2018-07-31T10:19:00.597Z,2844.00
2018-07-31T10:20:00.595Z,2840.00
2018-07-31T10:21:00.588Z,2832.00
2018-07-31T10:22:00.585Z,2824.00
2018-07-31T10:23:00.582Z,2800.00
2018-07-31T10:24:00.628Z,2800.00
2018-07-31T10:25:00.576Z,2788.00
2018-07-31T10:26:00.573Z,2800.00
2018-07-31T10:27:00.571Z,2796.00
2018-07-31T10:28:00.566Z,2792.00
2018-07-31T10:29:00.562Z,2800.00
2018-07-31T10:30:00.561Z,2796.00
2018-07-31T10:31:00.674Z,2800.00
2018-07-31T10:32:00.560Z,2800.00
2018-07-31T10:33:00.554Z,2796.00
2018-07-31T10:34:00.555Z,2788.00
2018-07-31T10:35:00.550Z,2764.00
2018-07-31T10:36:00.544Z,2752.00
2018-07-31T10:37:00.541Z,2748.00
2018-07-31T10:38:00.544Z,2744.00
2018-07-31T10:39:00.563Z,2752.00
2018-07-31T10:40:00.536Z,2740.00
2018-07-31T10:41:00.532Z,2740.00
2018-07-31T10:42:00.531Z,2724.00
2018-07-31T10:43:00.527Z,2712.00
2018-07-31T10:44:00.665Z,2700.00
2018-07-31T10:45:00.520Z,2684.00
2018-07-31T10:46:00.551Z,2672.00
2018-07-31T10:47:00.516Z,2664.00
2018-07-31T10:48:00.514Z,2648.00
2018-07-31T10:49:00.574Z,2636.00
2018-07-31T10:50:00.508Z,2616.00
2018-07-31T10:51:00.511Z,2600.00
2018-07-31T10:52:00.506Z,2584.00
2018-07-31T10:53:00.500Z,2576.00
2018-07-31T10:54:00.501Z,2560.00
2018-07-31T10:55:00.529Z,2544.00
2018-07-31T10:56:00.491Z,2524.00
2018-07-31T10:57:00.488Z,2512.00
2018-07-31T10:58:00.514Z,2488.00
2018-07-31T10:59:00.483Z,2468.00
2018-07-31T11:00:00.514Z,2444.00
2018-07-31T11:01:00.484Z,2440.00
2018-07-31T11:02:00.478Z,2444.00
2018-07-31T11:03:00.493Z,2440.00
2018-07-31T11:04:00.530Z,2436.00
2018-07-31T11:05:00.472Z,2436.00
2018-07-31T11:06:00.467Z,2436.00
2018-07-31T11:07:00.464Z,2416.00
2018-07-31T11:08:00.463Z,2396.00
2018-07-31T11:09:00.465Z,2376.00
2018-07-31T11:10:00.453Z,2368.00
2018-07-31T11:11:00.454Z,2364.00
2018-07-31T11:12:00.455Z,2352.00
2018-07-31T11:13:00.450Z,2328.00
2018-07-31T11:14:00.451Z,2304.00
2018-07-31T11:15:00.447Z,2288.00
2018-07-31T11:16:00.440Z,2280.00
2018-07-31T11:17:00.439Z,2268.00
2018-07-31T11:18:00.436Z,2264.00
2018-07-31T11:19:00.433Z,2260.00
2018-07-31T11:20:00.430Z,2244.00
2018-07-31T11:21:00.491Z,2240.00
2018-07-31T11:22:00.424Z,2232.00
2018-07-31T11:23:00.423Z,2220.00
2018-07-31T11:24:00.421Z,2212.00
2018-07-31T11:25:00.418Z,2200.00
2018-07-31T11:26:00.421Z,2180.00
2018-07-31T11:27:00.412Z,2168.00
2018-07-31T11:28:00.408Z,2148.00
2018-07-31T11:29:00.406Z,2136.00
2018-07-31T11:30:00.408Z,2112.00
2018-07-31T11:31:00.403Z,2100.00
2018-07-31T11:32:00.400Z,2084.00
2018-07-31T11:33:00.399Z,2076.00
2018-07-31T11:34:00.394Z,2068.00
2018-07-31T11:35:00.392Z,2048.00
2018-07-31T11:36:00.386Z,2036.00
2018-07-31T11:37:00.386Z,2024.00
2018-07-31T11:38:00.390Z,2008.00
2018-07-31T11:39:00.382Z,1996.00
2018-07-31T11:40:00.378Z,1980.00
2018-07-31T11:41:00.376Z,1952.00
2018-07-31T11:42:00.388Z,1944.00
2018-07-31T11:43:00.376Z,1928.00
2018-07-31T11:44:00.380Z,1920.00
2018-07-31T11:45:00.367Z,1920.00
2018-07-31T11:46:00.365Z,1916.00
2018-07-31T11:47:00.361Z,1912.00
2018-07-31T11:48:00.358Z,1908.00
2018-07-31T11:49:00.355Z,1896.00
2018-07-31T11:50:00.483Z,1872.00
2018-07-31T11:51:00.352Z,1832.00
2018-07-31T11:52:00.349Z,1672.00
2018-07-31T11:53:00.352Z,1588.00
2018-07-31T11:54:00.351Z,1192.00
2018-07-31T11:55:00.338Z,1260.00
2018-07-31T11:56:00.337Z,1692.00
2018-07-31T11:57:00.333Z,1776.00
2018-07-31T11:58:00.340Z,1788.00
2018-07-31T11:59:00.335Z,1784.00
2018-07-31T12:00:00.334Z,1776.00
2018-07-31T12:01:00.325Z,1760.00
2018-07-31T12:02:00.323Z,1744.00
2018-07-31T12:03:00.321Z,1728.00
2018-07-31T12:04:00.331Z,1716.00
2018-07-31T12:05:00.317Z,1708.00
2018-07-31T12:06:00.311Z,1692.00
2018-07-31T12:07:00.331Z,1680.00
2018-07-31T12:08:00.305Z,1664.00
2018-07-31T12:09:00.308Z,1644.00
2018-07-31T12:10:00.346Z,1636.00
2018-07-31T12:11:00.300Z,1624.00
2018-07-31T12:12:00.295Z,1608.00
2018-07-31T12:13:00.295Z,1584.00
2018-07-31T12:14:00.323Z,1548.00
2018-07-31T12:15:00.291Z,1512.00
2018-07-31T12:16:00.327Z,1484.00
2018-07-31T12:17:00.288Z,1456.00
2018-07-31T12:18:00.291Z,1432.00
2018-07-31T12:19:00.332Z,1400.00
2018-07-31T12:20:00.278Z,1384.00
2018-07-31T12:21:00.359Z,1360.00
2018-07-31T12:22:00.287Z,1332.00
2018-07-31T12:23:00.269Z,1312.00
2018-07-31T12:24:00.268Z,1296.00
2018-07-31T12:25:00.269Z,1276.00
2018-07-31T12:26:00.263Z,1268.00
2018-07-31T12:27:00.265Z,1256.00
2018-07-31T12:28:00.257Z,1252.00
2018-07-31T12:29:00.253Z,1248.00
2018-07-31T12:30:00.251Z,1248.00
2018-07-31T12:31:00.253Z,1228.00
2018-07-31T12:32:00.245Z,1224.00
2018-07-31T12:33:00.305Z,1224.00